首页
METAR-TAF:

METAR-TAF

机场 :

Sedona, 亞利桑那州, 美国

纬度: 34-51N, 经度: 111-47W, 海拔: 1471米

当前天气观测

该预报发布于24分钟前的12:55 UTC
风速12节,风向北转东北
温度 16°C
湿度 29%
气压 1020 hPa
能見度: 16.1公里
天空无云

METAR: KSEZ 271255Z AUTO 03012KT 10SM CLR 16/M02 A3011 RMK AO2

时间: 06:19 (13:19 UTC)

预报

该预报发布于1小时和59分钟前的11:20 UTC
预报有效从27日的 12点(UTC)到 28日的 12点(UTC)
风速12节,风向北转东北
能見度: 10公里
天空无云
从 27日的 1500点(UTC)
风速5节,风向南转南东
能見度: 10公里
天空无云
从 27日的 1900点(UTC)
风速9节,风向,有时为18节阵风
能見度: 10公里
天空无云
从 28日的 0300点(UTC)
风速6节,风向北转东北
能見度: 10公里
天空无云

TAF: KSEZ 271120Z 2712/2812 03012KT P6SM SKC FM271500 15005KT P6SM SKC FM271900 19009G18KT P6SM SKC FM280300 03006KT P6SM SKC

超过4000个机场的气象观测和天气预报(METAR&TAF报告)。

可查询的气象台以黄色和红色小点在地图上表示。

将鼠标移到小点上方,可查看气象台名称。

然后点击查看天气观测和预报。

如需切换地图:点击带黑十字的绿色按钮放大地图;点击带横线的绿色按钮缩小地图;或者点击绿色箭头查看邻近地区的地图。


METAR-TAF: